createdAt,value
2023-01-19T00:01:09.620Z,72.73
2023-01-19T00:03:39.704Z,67.13
2023-01-19T00:06:09.614Z,65.23
2023-01-19T00:08:39.146Z,62.30
2023-01-19T00:11:08.551Z,57.43
2023-01-19T00:13:38.530Z,56.37
2023-01-19T00:16:08.563Z,56.37
2023-01-19T00:18:37.635Z,55.27
2023-01-19T00:21:08.293Z,53.77
2023-01-19T00:23:37.483Z,51.50
2023-01-19T00:26:06.657Z,49.70
2023-01-19T00:28:35.939Z,48.03
2023-01-19T00:31:04.876Z,46.57
2023-01-19T00:33:34.191Z,45.63
2023-01-19T00:36:03.111Z,48.13
2023-01-19T00:38:33.657Z,46.03
2023-01-19T00:41:02.579Z,45.53
2023-01-19T00:43:31.594Z,45.23
2023-01-19T00:46:00.676Z,41.83
2023-01-19T00:48:30.807Z,41.73
2023-01-19T00:51:00.112Z,42.57
2023-01-19T00:53:32.703Z,43.80
2023-01-19T00:56:03.425Z,43.00
2023-01-19T00:58:32.327Z,44.87
2023-01-19T01:01:04.808Z,46.10
2023-01-19T01:03:34.458Z,43.73
2023-01-19T01:06:03.800Z,44.70
2023-01-19T01:08:32.753Z,48.23
2023-01-19T01:11:03.398Z,45.87
2023-01-19T01:13:32.811Z,47.07
2023-01-19T01:16:02.000Z,47.87
2023-01-19T01:18:30.902Z,48.30
2023-01-19T01:21:03.172Z,49.90
2023-01-19T01:23:32.367Z,48.77
2023-01-19T01:26:03.153Z,52.90
2023-01-19T01:28:32.559Z,55.20
2023-01-19T01:31:01.631Z,55.70
2023-01-19T01:33:40.953Z,55.30
2023-01-19T01:36:11.744Z,56.27
2023-01-19T01:38:41.085Z,58.37
2023-01-19T01:41:12.209Z,59.93
2023-01-19T01:43:47.136Z,59.83
2023-01-19T01:46:17.399Z,61.17
2023-01-19T01:48:51.148Z,58.23
2023-01-19T01:51:25.617Z,56.63
2023-01-19T01:54:08.159Z,57.37
2023-01-19T01:56:41.029Z,57.97
2023-01-19T01:59:18.068Z,59.17
2023-01-19T02:02:18.821Z,56.90
2023-01-19T02:04:52.352Z,51.00
2023-01-19T02:07:45.456Z,55.90
2023-01-19T02:10:31.694Z,57.23
2023-01-19T02:13:21.426Z,57.33
2023-01-19T02:15:52.852Z,55.50
2023-01-19T02:18:23.909Z,56.70
2023-01-19T02:21:00.530Z,57.00
2023-01-19T02:23:40.668Z,56.70
2023-01-19T02:26:11.532Z,54.73
2023-01-19T02:28:43.278Z,50.13
2023-01-19T02:31:12.919Z,49.93
2023-01-19T02:33:41.963Z,49.93
2023-01-19T02:36:15.245Z,53.50
2023-01-19T02:38:47.266Z,53.60
2023-01-19T02:41:20.707Z,55.23
2023-01-19T02:43:51.377Z,58.30
2023-01-19T02:46:20.495Z,54.50
2023-01-19T02:48:49.461Z,54.03
2023-01-19T02:51:22.566Z,49.77
2023-01-19T02:54:14.751Z,53.93
2023-01-19T02:56:56.439Z,54.17
2023-01-19T02:59:37.255Z,52.93
2023-01-19T03:02:23.166Z,50.53
2023-01-19T03:05:14.290Z,48.17
2023-01-19T03:08:01.224Z,47.90
2023-01-19T03:10:37.724Z,45.30
2023-01-19T03:13:14.268Z,43.60
2023-01-19T03:15:48.281Z,42.33
2023-01-19T03:18:22.570Z,42.90
2023-01-19T03:20:54.921Z,45.37
2023-01-19T03:23:29.054Z,43.77
2023-01-19T03:26:01.584Z,43.57
2023-01-19T03:28:32.289Z,39.73
2023-01-19T03:31:06.341Z,41.03
2023-01-19T03:33:38.708Z,40.70
2023-01-19T03:36:14.408Z,42.73
2023-01-19T03:38:44.470Z,42.73
2023-01-19T03:41:18.095Z,41.60
2023-01-19T03:43:51.387Z,40.40
2023-01-19T03:46:22.067Z,41.07
2023-01-19T03:48:51.598Z,40.47
2023-01-19T03:51:20.775Z,40.97
2023-01-19T03:53:50.117Z,40.67
2023-01-19T03:56:22.803Z,39.50
2023-01-19T03:58:52.468Z,40.40
2023-01-19T04:01:23.006Z,38.77
2023-01-19T04:03:52.754Z,37.87
2023-01-19T04:06:22.486Z,39.97
2023-01-19T04:08:52.876Z,38.43
2023-01-19T04:11:23.341Z,38.93
2023-01-19T04:13:52.459Z,38.67
2023-01-19T04:16:21.618Z,40.23
2023-01-19T04:18:50.775Z,39.33
2023-01-19T04:21:20.299Z,41.10
2023-01-19T04:23:49.983Z,38.00
2023-01-19T04:26:18.982Z,39.53
2023-01-19T04:28:49.632Z,38.07
2023-01-19T04:31:19.388Z,36.70
2023-01-19T04:33:48.393Z,37.93
2023-01-19T04:36:17.631Z,37.07
2023-01-19T04:38:48.672Z,40.27
2023-01-19T04:41:18.399Z,37.87
2023-01-19T04:43:49.027Z,40.00
2023-01-19T04:46:18.106Z,38.90
2023-01-19T04:48:46.878Z,40.87
2023-01-19T04:51:15.946Z,41.60
2023-01-19T04:53:45.009Z,40.20
2023-01-19T04:56:14.046Z,39.17
2023-01-19T04:58:43.101Z,38.50
2023-01-19T05:01:14.034Z,37.37
2023-01-19T05:03:43.099Z,35.97
2023-01-19T05:06:12.084Z,35.87
2023-01-19T05:08:41.273Z,37.03
2023-01-19T05:11:10.287Z,37.20
2023-01-19T05:13:39.429Z,37.43
2023-01-19T05:16:09.353Z,36.53
2023-01-19T05:18:40.415Z,36.53
2023-01-19T05:21:09.526Z,36.40
2023-01-19T05:23:38.455Z,35.13
2023-01-19T05:26:09.456Z,34.23
2023-01-19T05:28:38.935Z,36.13
2023-01-19T05:31:08.261Z,32.93
2023-01-19T05:33:37.440Z,31.77
2023-01-19T05:36:08.504Z,30.73
2023-01-19T05:38:37.543Z,31.63
2023-01-19T05:41:06.947Z,29.83
2023-01-19T05:43:35.988Z,28.37
2023-01-19T05:46:06.573Z,28.80
2023-01-19T05:48:35.690Z,28.67
2023-01-19T05:51:05.105Z,25.30
2023-01-19T05:53:35.929Z,24.90
2023-01-19T05:56:09.548Z,26.20
2023-01-19T05:58:39.486Z,25.13
2023-01-19T06:01:10.707Z,25.33
2023-01-19T06:03:41.082Z,23.90
2023-01-19T06:06:10.098Z,25.00
2023-01-19T06:08:40.884Z,24.70
2023-01-19T06:11:09.887Z,23.73
2023-01-19T06:13:41.385Z,24.77
2023-01-19T06:16:11.969Z,24.07
2023-01-19T06:18:40.960Z,25.33
2023-01-19T06:21:12.478Z,23.93
2023-01-19T06:23:43.386Z,23.87
2023-01-19T06:26:12.423Z,25.27
2023-01-19T06:28:41.497Z,24.13
2023-01-19T06:31:10.541Z,25.67
2023-01-19T06:33:39.631Z,25.17
2023-01-19T06:36:08.860Z,25.30
2023-01-19T06:38:37.994Z,25.17
2023-01-19T06:41:08.669Z,24.47
2023-01-19T06:43:37.783Z,25.17
2023-01-19T06:46:07.264Z,26.17
2023-01-19T06:48:36.295Z,59.67
2023-01-19T06:51:06.031Z,36.10
2023-01-19T06:53:35.183Z,28.37
2023-01-19T06:56:05.100Z,29.57
2023-01-19T06:58:35.997Z,26.27
2023-01-19T07:01:06.598Z,25.33
2023-01-19T07:03:37.325Z,23.53
2023-01-19T07:06:08.038Z,22.57
2023-01-19T07:08:38.001Z,22.70
2023-01-19T07:11:26.575Z,22.93
2023-01-19T07:13:59.182Z,21.53
2023-01-19T07:16:28.296Z,22.00
2023-01-19T07:18:57.556Z,22.03
2023-01-19T07:21:28.935Z,22.70
2023-01-19T07:23:58.280Z,22.43
2023-01-19T07:26:28.069Z,21.20
2023-01-19T07:28:58.388Z,21.70
2023-01-19T07:31:27.843Z,21.30
2023-01-19T07:33:57.993Z,21.27
2023-01-19T07:36:26.969Z,21.20
2023-01-19T07:38:56.108Z,21.67
2023-01-19T07:41:25.220Z,20.90
2023-01-19T07:43:54.489Z,19.97
2023-01-19T07:46:25.431Z,20.13
2023-01-19T07:48:54.552Z,19.67
2023-01-19T07:51:23.743Z,18.97
2023-01-19T07:53:53.024Z,21.13
2023-01-19T07:56:22.475Z,20.53
2023-01-19T07:58:52.568Z,20.53
2023-01-19T08:01:21.508Z,21.00
2023-01-19T08:03:52.301Z,23.23
2023-01-19T08:06:23.621Z,23.23
2023-01-19T08:08:53.215Z,21.90
2023-01-19T08:11:22.373Z,21.83
2023-01-19T08:13:51.183Z,20.90
2023-01-19T08:16:20.369Z,22.50
2023-01-19T08:18:49.456Z,23.63
2023-01-19T08:21:19.918Z,22.53
2023-01-19T08:23:54.070Z,23.10
2023-01-19T08:26:29.747Z,22.30
2023-01-19T08:29:01.713Z,21.40
2023-01-19T08:31:31.196Z,22.10
2023-01-19T08:34:00.222Z,22.00
2023-01-19T08:36:30.984Z,21.27
2023-01-19T08:39:00.052Z,22.50
2023-01-19T08:41:28.886Z,22.30
2023-01-19T08:43:57.907Z,22.77
2023-01-19T08:46:27.404Z,22.53
2023-01-19T08:48:56.575Z,21.43
2023-01-19T08:51:25.639Z,21.17
2023-01-19T08:53:56.421Z,22.17
2023-01-19T08:56:25.434Z,19.33
2023-01-19T08:59:08.167Z,18.37
2023-01-19T09:01:38.761Z,17.50
2023-01-19T09:04:07.968Z,17.20
2023-01-19T09:06:36.802Z,17.87
2023-01-19T09:09:07.651Z,19.63
2023-01-19T09:11:36.772Z,19.37
2023-01-19T09:14:06.072Z,19.27
2023-01-19T09:16:35.195Z,20.27
2023-01-19T09:19:04.572Z,20.97
2023-01-19T09:21:33.540Z,22.30
2023-01-19T09:24:02.497Z,20.13
2023-01-19T09:26:33.362Z,13.50
2023-01-19T09:29:02.447Z,16.87
2023-01-19T09:31:31.550Z,15.97
2023-01-19T09:34:00.730Z,15.60
2023-01-19T09:36:30.161Z,16.97
2023-01-19T09:38:59.285Z,17.87
2023-01-19T09:41:28.508Z,18.67
2023-01-19T09:44:01.807Z,19.00
2023-01-19T09:46:38.819Z,18.77
2023-01-19T09:49:14.664Z,17.00
2023-01-19T09:51:47.799Z,16.27
2023-01-19T09:54:18.609Z,16.03
2023-01-19T09:56:52.353Z,14.93
2023-01-19T09:59:26.152Z,14.50
2023-01-19T10:02:14.387Z,11.03
2023-01-19T10:04:44.828Z,10.20
2023-01-19T10:07:23.900Z,9.03
2023-01-19T10:10:09.178Z,8.13
2023-01-19T10:12:46.702Z,9.10
2023-01-19T10:15:27.033Z,9.80
2023-01-19T10:18:09.523Z,9.73
2023-01-19T10:20:41.978Z,10.23
2023-01-19T10:23:30.708Z,10.97
2023-01-19T10:26:02.564Z,11.70
2023-01-19T10:28:32.094Z,16.80
2023-01-19T10:31:05.089Z,14.70
2023-01-19T10:33:35.666Z,15.17
2023-01-19T10:36:16.816Z,14.53
2023-01-19T10:38:46.391Z,14.00
2023-01-19T10:41:24.331Z,14.20
2023-01-19T10:44:01.407Z,14.50
2023-01-19T10:46:38.799Z,14.90
2023-01-19T10:49:08.887Z,13.60
2023-01-19T10:51:49.096Z,14.07
2023-01-19T10:54:18.565Z,14.37
2023-01-19T10:56:53.845Z,14.97
2023-01-19T10:59:35.087Z,14.47
2023-01-19T11:02:17.337Z,13.93
2023-01-19T11:04:50.121Z,13.10
2023-01-19T11:07:22.322Z,13.23
2023-01-19T11:10:07.296Z,14.30
2023-01-19T11:12:41.046Z,14.40
2023-01-19T11:15:17.272Z,14.63
2023-01-19T11:17:48.944Z,14.87
2023-01-19T11:20:24.702Z,14.70
2023-01-19T11:23:07.077Z,13.77
2023-01-19T11:25:37.885Z,14.00
2023-01-19T11:28:07.287Z,14.53
2023-01-19T11:30:36.949Z,20.63
2023-01-19T11:33:08.147Z,15.67
2023-01-19T11:35:39.639Z,17.00
2023-01-19T11:38:27.737Z,19.90
2023-01-19T11:40:58.739Z,15.80
2023-01-19T11:43:43.506Z,14.30
2023-01-19T11:46:19.191Z,14.70
2023-01-19T11:49:01.373Z,15.97
2023-01-19T11:51:37.085Z,16.47
2023-01-19T11:54:18.724Z,15.53
2023-01-19T11:56:52.010Z,15.57
2023-01-19T11:59:22.495Z,16.70
2023-01-19T12:01:57.490Z,16.10
2023-01-19T12:04:32.650Z,15.47
2023-01-19T12:07:07.650Z,16.33
2023-01-19T12:09:42.769Z,15.97
2023-01-19T12:12:25.452Z,16.30
2023-01-19T12:14:59.513Z,16.47
2023-01-19T12:17:30.883Z,18.37
2023-01-19T12:20:08.279Z,17.07
2023-01-19T12:22:49.526Z,17.27
2023-01-19T12:25:24.581Z,17.07
2023-01-19T12:27:54.847Z,18.07
2023-01-19T12:30:26.523Z,69.03
2023-01-19T12:33:22.321Z,37.33
2023-01-19T12:36:01.151Z,19.33
2023-01-19T12:38:48.023Z,21.03
2023-01-19T12:41:23.233Z,18.10
2023-01-19T12:44:19.294Z,17.30
2023-01-19T12:46:50.658Z,15.80
2023-01-19T12:49:29.895Z,16.20
2023-01-19T12:52:28.738Z,17.13
2023-01-19T12:55:08.082Z,20.73
2023-01-19T12:57:42.081Z,17.23
2023-01-19T13:00:31.636Z,15.30
2023-01-19T13:03:01.668Z,16.13
2023-01-19T13:06:00.888Z,16.57
2023-01-19T13:08:52.904Z,16.93
2023-01-19T13:11:26.704Z,16.87
2023-01-19T13:14:35.658Z,16.70
2023-01-19T13:17:30.777Z,16.10
2023-01-19T13:20:25.517Z,17.23
2023-01-19T13:23:18.392Z,17.83
2023-01-19T13:26:03.905Z,18.27
2023-01-19T13:28:40.578Z,18.00
2023-01-19T13:31:10.242Z,16.87
2023-01-19T13:33:46.297Z,16.20
2023-01-19T13:36:26.727Z,17.13
2023-01-19T13:38:57.963Z,16.17
2023-01-19T13:41:30.774Z,17.27
2023-01-19T13:44:10.563Z,17.40
2023-01-19T13:46:40.743Z,17.10
2023-01-19T13:49:18.553Z,16.57
2023-01-19T13:51:49.581Z,17.97
2023-01-19T13:54:19.567Z,22.43
2023-01-19T13:56:50.131Z,21.20
2023-01-19T13:59:20.995Z,18.97
2023-01-19T14:01:51.295Z,18.40
2023-01-19T14:04:29.292Z,18.43
2023-01-19T14:07:01.828Z,17.10
2023-01-19T14:09:30.946Z,17.63
2023-01-19T14:12:10.182Z,17.80
2023-01-19T14:14:41.350Z,28.67
2023-01-19T14:17:25.752Z,28.90
2023-01-19T14:19:56.660Z,29.33
2023-01-19T14:22:40.256Z,22.73
2023-01-19T14:25:32.066Z,27.13
2023-01-19T14:28:29.813Z,22.87
2023-01-19T14:31:02.620Z,26.87
2023-01-19T14:33:36.436Z,26.87
2023-01-19T14:36:22.133Z,25.93
2023-01-19T14:38:53.153Z,27.30
2023-01-19T14:41:28.168Z,25.33
2023-01-19T14:43:57.911Z,30.43
2023-01-19T14:46:29.387Z,30.90
2023-01-19T14:49:03.228Z,28.07
2023-01-19T14:51:32.936Z,32.70
2023-01-19T14:54:03.792Z,34.17
2023-01-19T14:56:35.308Z,33.80
2023-01-19T14:59:11.785Z,30.73
2023-01-19T15:01:42.559Z,32.17
2023-01-19T15:04:11.758Z,28.67
2023-01-19T15:06:45.839Z,25.63
2023-01-19T15:09:15.492Z,26.33
2023-01-19T15:11:47.656Z,26.03
2023-01-19T15:14:18.037Z,27.70
2023-01-19T15:16:49.310Z,25.83
2023-01-19T15:19:19.042Z,26.30
2023-01-19T15:21:48.304Z,32.13
2023-01-19T15:24:18.115Z,28.17
2023-01-19T15:26:47.478Z,25.03
2023-01-19T15:29:22.929Z,25.67
2023-01-19T15:31:54.222Z,26.77
2023-01-19T15:34:23.323Z,28.30
2023-01-19T15:36:52.364Z,25.30
2023-01-19T15:39:21.591Z,27.27
2023-01-19T15:41:50.652Z,27.57
2023-01-19T15:44:19.349Z,26.40
2023-01-19T15:46:48.096Z,26.23
2023-01-19T15:49:18.204Z,25.63
2023-01-19T15:51:46.984Z,26.83
2023-01-19T15:54:16.397Z,40.43
2023-01-19T15:56:45.200Z,45.37
2023-01-19T15:59:14.548Z,84.67
2023-01-19T16:01:43.835Z,52.87
2023-01-19T16:04:13.551Z,32.87
2023-01-19T16:06:44.230Z,29.50
2023-01-19T16:09:18.519Z,29.20
2023-01-19T16:11:47.610Z,29.40
2023-01-19T16:14:17.555Z,36.00
2023-01-19T16:16:46.993Z,47.13
2023-01-19T16:19:16.852Z,40.77
2023-01-19T16:21:47.040Z,38.03
2023-01-19T16:24:16.117Z,41.47
2023-01-19T16:26:45.288Z,41.50
2023-01-19T16:29:14.203Z,44.43
2023-01-19T16:31:45.542Z,41.07
2023-01-19T16:34:14.937Z,40.87
2023-01-19T16:36:44.412Z,36.30
2023-01-19T16:39:16.177Z,40.13
2023-01-19T16:41:46.458Z,40.43
2023-01-19T16:44:17.594Z,47.97
2023-01-19T16:46:49.782Z,48.30
2023-01-19T16:49:21.191Z,44.03
2023-01-19T16:51:50.887Z,46.77
2023-01-19T16:54:23.548Z,50.67
2023-01-19T16:56:53.656Z,45.63
2023-01-19T16:59:24.871Z,46.40
2023-01-19T17:01:54.903Z,47.60
2023-01-19T17:04:24.791Z,49.37
2023-01-19T17:06:54.080Z,55.90
2023-01-19T17:09:25.169Z,51.03
2023-01-19T17:11:55.103Z,46.50
2023-01-19T17:14:24.547Z,67.57
2023-01-19T17:16:54.104Z,82.00
2023-01-19T17:19:23.754Z,75.07
2023-01-19T17:21:53.164Z,70.57
2023-01-19T17:24:24.365Z,68.13
2023-01-19T17:26:53.666Z,58.60
2023-01-19T17:29:22.826Z,60.53
2023-01-19T17:31:52.295Z,67.17
2023-01-19T17:34:24.550Z,65.43
2023-01-19T17:36:54.247Z,60.47
2023-01-19T17:39:25.016Z,63.63
2023-01-19T17:41:54.149Z,62.07
2023-01-19T17:44:23.068Z,55.53
2023-01-19T17:46:52.217Z,48.80
2023-01-19T17:49:21.090Z,47.03
2023-01-19T17:51:54.514Z,45.27
2023-01-19T17:54:25.278Z,43.73
2023-01-19T17:56:54.007Z,45.43
2023-01-19T17:59:23.065Z,57.63
2023-01-19T18:01:52.375Z,64.27
2023-01-19T18:04:21.476Z,50.63
2023-01-19T18:06:50.500Z,44.53
2023-01-19T18:09:19.355Z,50.40
2023-01-19T18:11:49.727Z,52.20
2023-01-19T18:14:18.755Z,45.73
2023-01-19T18:16:47.844Z,42.00
2023-01-19T18:19:16.860Z,43.50
2023-01-19T18:21:45.619Z,43.10
2023-01-19T18:24:14.553Z,43.80
2023-01-19T18:26:43.469Z,46.63
2023-01-19T18:29:13.971Z,57.33
2023-01-19T18:31:43.036Z,56.50
2023-01-19T18:34:12.516Z,58.23
2023-01-19T18:36:41.571Z,73.10
2023-01-19T18:39:10.777Z,52.30
2023-01-19T18:41:42.366Z,45.40
2023-01-19T18:44:12.208Z,50.30
2023-01-19T18:46:42.923Z,51.60
2023-01-19T18:49:12.101Z,55.27
2023-01-19T18:51:42.088Z,55.50
2023-01-19T18:54:12.285Z,60.87
2023-01-19T18:56:41.411Z,55.87
2023-01-19T18:59:10.838Z,56.90
2023-01-19T19:01:42.014Z,55.43
2023-01-19T19:04:11.828Z,56.07
2023-01-19T19:06:41.071Z,50.07
2023-01-19T19:09:11.073Z,49.83
2023-01-19T19:11:39.989Z,54.40
2023-01-19T19:14:09.372Z,48.70
2023-01-19T19:16:39.589Z,51.93
2023-01-19T19:19:11.933Z,60.10
2023-01-19T19:21:41.286Z,51.30
2023-01-19T19:24:11.431Z,45.60
2023-01-19T19:26:42.022Z,43.80
2023-01-19T19:29:11.914Z,38.23
2023-01-19T19:31:41.080Z,38.87
2023-01-19T19:34:12.585Z,41.83
2023-01-19T19:36:42.093Z,48.97
2023-01-19T19:39:11.105Z,50.00
2023-01-19T19:41:40.395Z,43.73
2023-01-19T19:44:12.680Z,39.80
2023-01-19T19:46:42.618Z,39.87
2023-01-19T19:49:13.301Z,47.80
2023-01-19T19:51:42.517Z,52.37
2023-01-19T19:54:12.775Z,64.47
2023-01-19T19:56:43.660Z,61.67
2023-01-19T19:59:14.628Z,60.73
2023-01-19T20:01:47.165Z,51.60
2023-01-19T20:04:21.206Z,43.87
2023-01-19T20:06:51.469Z,39.00
2023-01-19T20:09:21.458Z,38.47
2023-01-19T20:11:52.327Z,39.67
2023-01-19T20:14:22.648Z,45.20
2023-01-19T20:16:53.179Z,40.40
2023-01-19T20:19:24.326Z,39.80
2023-01-19T20:21:53.993Z,44.33
2023-01-19T20:24:23.399Z,45.90
2023-01-19T20:26:54.952Z,42.23
2023-01-19T20:29:24.347Z,42.07
2023-01-19T20:31:55.360Z,47.20
2023-01-19T20:34:32.822Z,46.20
2023-01-19T20:37:03.344Z,46.60
2023-01-19T20:39:35.256Z,43.70
2023-01-19T20:42:05.114Z,41.83
2023-01-19T20:44:34.239Z,47.03
2023-01-19T20:47:05.858Z,45.37
2023-01-19T20:49:37.719Z,47.40
2023-01-19T20:52:07.147Z,52.53
2023-01-19T20:54:36.783Z,55.30
2023-01-19T20:57:06.109Z,57.80
2023-01-19T20:59:37.134Z,51.20
2023-01-19T21:02:12.454Z,46.10
2023-01-19T21:04:43.991Z,40.17
2023-01-19T21:07:14.157Z,39.47
2023-01-19T21:09:44.058Z,36.43
2023-01-19T21:12:15.256Z,37.87
2023-01-19T21:14:46.121Z,39.00
2023-01-19T21:17:15.607Z,39.53
2023-01-19T21:19:46.677Z,40.27
2023-01-19T21:22:15.901Z,39.17
2023-01-19T21:24:45.163Z,41.87
2023-01-19T21:27:14.449Z,42.30
2023-01-19T21:29:43.499Z,40.43
2023-01-19T21:32:13.095Z,43.93
2023-01-19T21:34:46.350Z,53.67
2023-01-19T21:37:16.544Z,51.90
2023-01-19T21:39:46.716Z,51.40
2023-01-19T21:42:15.975Z,44.00
2023-01-19T21:44:44.975Z,46.63
2023-01-19T21:47:14.203Z,50.53
2023-01-19T21:49:43.248Z,46.63
2023-01-19T21:52:13.783Z,47.23
2023-01-19T21:54:43.283Z,48.43
2023-01-19T21:57:15.222Z,54.67
2023-01-19T21:59:44.251Z,55.70
2023-01-19T22:02:13.768Z,49.33
2023-01-19T22:04:43.104Z,49.33
2023-01-19T22:07:13.459Z,54.17
2023-01-19T22:09:42.256Z,56.10
2023-01-19T22:12:10.977Z,56.13
2023-01-19T22:14:39.772Z,54.67
2023-01-19T22:17:08.456Z,54.47
2023-01-19T22:19:37.191Z,57.63
2023-01-19T22:22:05.965Z,56.40
2023-01-19T22:24:36.695Z,54.53
2023-01-19T22:27:05.795Z,54.93
2023-01-19T22:29:34.961Z,53.30
2023-01-19T22:32:03.966Z,59.70
2023-01-19T22:34:33.100Z,56.17
2023-01-19T22:37:02.173Z,50.03
2023-01-19T22:39:31.284Z,49.70
2023-01-19T22:42:01.839Z,48.03
2023-01-19T22:44:31.711Z,49.87
2023-01-19T22:47:00.719Z,52.50
2023-01-19T22:49:30.227Z,55.17
2023-01-19T22:51:59.633Z,58.77
2023-01-19T22:54:29.976Z,57.70
2023-01-19T22:56:59.809Z,60.63
2023-01-19T22:59:30.656Z,68.70
2023-01-19T23:01:59.713Z,80.67
2023-01-19T23:04:28.888Z,77.07
2023-01-19T23:06:57.944Z,62.17
2023-01-19T23:09:26.975Z,49.33
2023-01-19T23:11:56.167Z,45.20
2023-01-19T23:14:25.297Z,46.43
2023-01-19T23:16:55.945Z,45.80
2023-01-19T23:19:24.950Z,45.57
2023-01-19T23:21:54.350Z,55.57
2023-01-19T23:24:23.377Z,51.33
2023-01-19T23:26:53.200Z,64.73
2023-01-19T23:29:22.188Z,71.07
2023-01-19T23:31:53.436Z,64.23
2023-01-19T23:34:24.239Z,59.27
2023-01-19T23:36:53.230Z,50.83
2023-01-19T23:39:23.416Z,47.03
2023-01-19T23:41:52.416Z,49.63
2023-01-19T23:44:21.429Z,48.53
2023-01-19T23:46:50.552Z,50.37
2023-01-19T23:49:19.668Z,64.53
2023-01-19T23:51:50.733Z,54.37
2023-01-19T23:54:19.678Z,46.73
2023-01-19T23:56:48.713Z,45.37
2023-01-19T23:59:18.185Z,43.70
